sensor_id;sensor_type;location;lat;lon;timestamp;pressure;altitude;pressure_sealevel;temperature;humidity
63405;BME280;49541;57.840;12.306;2023-01-04T00:00:30;101135.25;;;3.39;77.34
63405;BME280;49541;57.840;12.306;2023-01-04T00:05:30;101128.09;;;3.60;77.09
63405;BME280;49541;57.840;12.306;2023-01-04T00:10:30;101125.63;;;3.75;76.55
63405;BME280;49541;57.840;12.306;2023-01-04T00:15:30;101112.47;;;3.75;75.98
63405;BME280;49541;57.840;12.306;2023-01-04T00:20:30;101104.06;;;3.49;76.05
63405;BME280;49541;57.840;12.306;2023-01-04T00:25:30;101099.97;;;3.61;75.97
63405;BME280;49541;57.840;12.306;2023-01-04T00:30:31;101089.56;;;3.40;76.14
63405;BME280;49541;57.840;12.306;2023-01-04T00:35:32;101063.13;;;3.24;76.28
63405;BME280;49541;57.840;12.306;2023-01-04T00:40:33;101048.81;;;2.94;77.52
63405;BME280;49541;57.840;12.306;2023-01-04T00:45:33;101045.56;;;2.89;78.60
63405;BME280;49541;57.840;12.306;2023-01-04T00:50:33;101037.81;;;2.85;78.77
63405;BME280;49541;57.840;12.306;2023-01-04T00:55:33;101017.53;;;3.24;78.09
63405;BME280;49541;57.840;12.306;2023-01-04T01:00:33;101012.22;;;3.25;78.49
63405;BME280;49541;57.840;12.306;2023-01-04T01:05:34;101012.53;;;3.37;78.32
63405;BME280;49541;57.840;12.306;2023-01-04T01:10:35;101000.50;;;3.31;78.69
63405;BME280;49541;57.840;12.306;2023-01-04T01:15:35;101002.06;;;3.35;78.59
63405;BME280;49541;57.840;12.306;2023-01-04T01:20:39;100992.38;;;3.18;78.60
63405;BME280;49541;57.840;12.306;2023-01-04T01:25:40;100979.91;;;3.04;79.61
63405;BME280;49541;57.840;12.306;2023-01-04T01:30:40;100976.75;;;3.33;79.70
63405;BME280;49541;57.840;12.306;2023-01-04T01:35:41;100963.44;;;3.36;79.61
63405;BME280;49541;57.840;12.306;2023-01-04T01:40:41;100962.75;;;3.49;79.07
63405;BME280;49541;57.840;12.306;2023-01-04T01:45:41;100960.41;;;3.08;79.30
63405;BME280;49541;57.840;12.306;2023-01-04T01:50:43;100939.88;;;2.80;81.21
63405;BME280;49541;57.840;12.306;2023-01-04T01:55:44;100925.19;;;3.11;80.92
63405;BME280;49541;57.840;12.306;2023-01-04T02:00:46;100917.78;;;3.19;80.33
63405;BME280;49541;57.840;12.306;2023-01-04T02:05:48;100902.16;;;3.16;80.29
63405;BME280;49541;57.840;12.306;2023-01-04T02:10:49;100891.94;;;3.10;80.61
63405;BME280;49541;57.840;12.306;2023-01-04T02:20:51;100867.63;;;3.05;80.97
63405;BME280;49541;57.840;12.306;2023-01-04T02:36:17;100824.38;;;2.93;81.75
63405;BME280;49541;57.840;12.306;2023-01-04T02:41:26;100807.28;;;2.84;82.30
63405;BME280;49541;57.840;12.306;2023-01-04T02:46:31;100799.38;;;3.02;82.03
63405;BME280;49541;57.840;12.306;2023-01-04T02:51:34;100782.47;;;3.23;81.36
63405;BME280;49541;57.840;12.306;2023-01-04T02:56:58;100762.38;;;3.05;81.67
63405;BME280;49541;57.840;12.306;2023-01-04T03:02:04;100745.63;;;3.23;81.28
63405;BME280;49541;57.840;12.306;2023-01-04T03:07:26;100734.53;;;3.01;82.53
63405;BME280;49541;57.840;12.306;2023-01-04T03:12:27;100727.59;;;3.00;81.87
63405;BME280;49541;57.840;12.306;2023-01-04T03:17:40;100710.56;;;2.90;82.69
63405;BME280;49541;57.840;12.306;2023-01-04T03:22:50;100700.38;;;2.83;82.86
63405;BME280;49541;57.840;12.306;2023-01-04T03:28:11;100681.44;;;2.77;82.75
63405;BME280;49541;57.840;12.306;2023-01-04T03:33:31;100672.47;;;2.81;82.64
63405;BME280;49541;57.840;12.306;2023-01-04T03:44:18;100649.94;;;2.93;82.44
63405;BME280;49541;57.840;12.306;2023-01-04T03:54:38;100606.00;;;2.95;82.43
63405;BME280;49541;57.840;12.306;2023-01-04T03:59:43;100590.47;;;3.06;81.91
63405;BME280;49541;57.840;12.306;2023-01-04T04:04:44;100570.19;;;3.08;82.00
63405;BME280;49541;57.840;12.306;2023-01-04T04:10:03;100557.44;;;3.00;82.19
63405;BME280;49541;57.840;12.306;2023-01-04T04:15:03;100541.53;;;3.34;81.17
63405;BME280;49541;57.840;12.306;2023-01-04T04:20:04;100534.34;;;2.58;83.83
63405;BME280;49541;57.840;12.306;2023-01-04T04:25:04;100510.44;;;2.78;84.21
63405;BME280;49541;57.840;12.306;2023-01-04T04:30:05;100497.03;;;2.83;83.67
63405;BME280;49541;57.840;12.306;2023-01-04T04:35:05;100479.97;;;3.06;83.28
63405;BME280;49541;57.840;12.306;2023-01-04T04:40:05;100465.06;;;2.91;82.90
63405;BME280;49541;57.840;12.306;2023-01-04T04:45:06;100449.50;;;2.86;84.46
63405;BME280;49541;57.840;12.306;2023-01-04T04:50:06;100437.91;;;2.74;84.20
63405;BME280;49541;57.840;12.306;2023-01-04T04:55:07;100424.38;;;2.50;85.41
63405;BME280;49541;57.840;12.306;2023-01-04T05:00:07;100393.28;;;2.89;84.56
63405;BME280;49541;57.840;12.306;2023-01-04T05:05:08;100374.69;;;2.92;84.20
63405;BME280;49541;57.840;12.306;2023-01-04T05:10:08;100371.47;;;2.56;84.78
63405;BME280;49541;57.840;12.306;2023-01-04T05:15:09;100361.44;;;2.63;85.02
63405;BME280;49541;57.840;12.306;2023-01-04T05:20:09;100334.81;;;2.53;85.74
63405;BME280;49541;57.840;12.306;2023-01-04T05:25:10;100318.84;;;2.72;85.15
63405;BME280;49541;57.840;12.306;2023-01-04T05:30:12;100311.22;;;2.67;85.67
63405;BME280;49541;57.840;12.306;2023-01-04T05:35:31;100279.75;;;2.66;85.45
63405;BME280;49541;57.840;12.306;2023-01-04T05:40:31;100268.94;;;2.86;84.62
63405;BME280;49541;57.840;12.306;2023-01-04T05:45:31;100248.78;;;2.57;85.86
63405;BME280;49541;57.840;12.306;2023-01-04T05:50:31;100232.09;;;2.72;85.25
63405;BME280;49541;57.840;12.306;2023-01-04T05:55:32;100214.63;;;2.71;84.90
63405;BME280;49541;57.840;12.306;2023-01-04T06:00:32;100204.59;;;3.06;84.78
63405;BME280;49541;57.840;12.306;2023-01-04T06:05:32;100189.28;;;2.84;84.87
63405;BME280;49541;57.840;12.306;2023-01-04T06:10:33;100169.53;;;2.77;84.95
63405;BME280;49541;57.840;12.306;2023-01-04T06:15:33;100156.22;;;2.66;85.86
63405;BME280;49541;57.840;12.306;2023-01-04T06:20:33;100134.06;;;2.84;85.30
63405;BME280;49541;57.840;12.306;2023-01-04T06:25:33;100115.81;;;2.96;84.48
63405;BME280;49541;57.840;12.306;2023-01-04T06:30:33;100109.81;;;3.08;83.95
63405;BME280;49541;57.840;12.306;2023-01-04T06:35:34;100083.03;;;3.01;84.18
63405;BME280;49541;57.840;12.306;2023-01-04T06:40:34;100066.81;;;2.95;83.92
63405;BME280;49541;57.840;12.306;2023-01-04T06:45:35;100064.38;;;2.77;84.82
63405;BME280;49541;57.840;12.306;2023-01-04T06:50:35;100039.91;;;3.04;84.23
63405;BME280;49541;57.840;12.306;2023-01-04T06:55:35;100029.34;;;2.77;84.69
63405;BME280;49541;57.840;12.306;2023-01-04T07:00:35;100013.28;;;2.81;84.62
63405;BME280;49541;57.840;12.306;2023-01-04T07:05:36;99994.50;;;2.87;84.30
63405;BME280;49541;57.840;12.306;2023-01-04T07:10:36;99986.41;;;2.91;84.31
63405;BME280;49541;57.840;12.306;2023-01-04T07:15:36;99976.16;;;2.86;84.37
63405;BME280;49541;57.840;12.306;2023-01-04T07:20:37;99956.34;;;2.67;84.65
63405;BME280;49541;57.840;12.306;2023-01-04T07:25:37;99943.19;;;2.67;84.77
63405;BME280;49541;57.840;12.306;2023-01-04T07:30:37;99929.03;;;2.56;85.99
63405;BME280;49541;57.840;12.306;2023-01-04T07:35:37;99919.44;;;2.69;85.44
63405;BME280;49541;57.840;12.306;2023-01-04T07:40:38;99903.56;;;2.43;86.10
63405;BME280;49541;57.840;12.306;2023-01-04T07:45:38;99897.59;;;2.81;85.77
63405;BME280;49541;57.840;12.306;2023-01-04T07:50:38;99873.09;;;2.54;85.75
63405;BME280;49541;57.840;12.306;2023-01-04T07:55:38;99867.22;;;2.90;84.74
63405;BME280;49541;57.840;12.306;2023-01-04T08:00:39;99847.91;;;2.64;85.79
63405;BME280;49541;57.840;12.306;2023-01-04T08:05:39;99834.38;;;2.70;85.44
63405;BME280;49541;57.840;12.306;2023-01-04T08:10:41;99828.53;;;2.52;85.87
63405;BME280;49541;57.840;12.306;2023-01-04T08:15:41;99819.06;;;2.50;86.70
63405;BME280;49541;57.840;12.306;2023-01-04T08:20:41;99806.69;;;2.64;86.02
63405;BME280;49541;57.840;12.306;2023-01-04T08:25:41;99784.69;;;3.05;84.70
63405;BME280;49541;57.840;12.306;2023-01-04T08:30:41;99768.13;;;2.65;85.27
63405;BME280;49541;57.840;12.306;2023-01-04T08:35:42;99749.53;;;2.94;84.85
63405;BME280;49541;57.840;12.306;2023-01-04T08:40:42;99734.28;;;2.86;84.95
63405;BME280;49541;57.840;12.306;2023-01-04T08:45:42;99711.25;;;3.02;84.72
63405;BME280;49541;57.840;12.306;2023-01-04T08:50:42;99702.63;;;2.87;84.36
63405;BME280;49541;57.840;12.306;2023-01-04T08:55:47;99678.03;;;2.63;85.71
63405;BME280;49541;57.840;12.306;2023-01-04T09:00:47;99663.91;;;2.90;84.97
63405;BME280;49541;57.840;12.306;2023-01-04T09:05:48;99661.19;;;2.91;84.98
63405;BME280;49541;57.840;12.306;2023-01-04T09:10:48;99648.78;;;2.93;84.82
63405;BME280;49541;57.840;12.306;2023-01-04T09:15:48;99621.19;;;2.99;84.60
63405;BME280;49541;57.840;12.306;2023-01-04T09:20:48;99602.88;;;3.10;83.77
63405;BME280;49541;57.840;12.306;2023-01-04T09:25:48;99583.56;;;2.85;84.83
63405;BME280;49541;57.840;12.306;2023-01-04T09:30:49;99564.28;;;2.98;84.65
63405;BME280;49541;57.840;12.306;2023-01-04T09:35:49;99547.19;;;2.79;85.39
63405;BME280;49541;57.840;12.306;2023-01-04T09:40:53;99531.38;;;2.92;85.59
63405;BME280;49541;57.840;12.306;2023-01-04T09:45:56;99539.84;;;2.84;85.66
63405;BME280;49541;57.840;12.306;2023-01-04T09:51:03;99513.16;;;2.78;86.08
63405;BME280;49541;57.840;12.306;2023-01-04T09:56:10;99505.03;;;3.05;86.13
63405;BME280;49541;57.840;12.306;2023-01-04T10:01:17;99502.94;;;3.10;85.14
63405;BME280;49541;57.840;12.306;2023-01-04T10:06:19;99497.44;;;3.13;85.04
63405;BME280;49541;57.840;12.306;2023-01-04T10:11:33;99489.88;;;3.08;84.84
63405;BME280;49541;57.840;12.306;2023-01-04T10:16:52;99464.88;;;3.03;85.43
63405;BME280;49541;57.840;12.306;2023-01-04T10:21:57;99453.69;;;3.12;85.76
63405;BME280;49541;57.840;12.306;2023-01-04T10:27:04;99422.03;;;2.90;86.22
63405;BME280;49541;57.840;12.306;2023-01-04T10:37:24;99375.00;;;2.74;86.71
63405;BME280;49541;57.840;12.306;2023-01-04T10:42:33;99363.47;;;2.99;86.59
63405;BME280;49541;57.840;12.306;2023-01-04T10:52:41;99330.09;;;3.23;85.54
63405;BME280;49541;57.840;12.306;2023-01-04T11:03:04;99288.47;;;3.17;85.75
63405;BME280;49541;57.840;12.306;2023-01-04T11:08:14;99280.81;;;3.14;86.30
63405;BME280;49541;57.840;12.306;2023-01-04T11:13:17;99264.06;;;3.15;86.15
63405;BME280;49541;57.840;12.306;2023-01-04T11:18:17;99256.91;;;3.17;85.92
63405;BME280;49541;57.840;12.306;2023-01-04T11:23:18;99232.53;;;3.38;85.34
63405;BME280;49541;57.840;12.306;2023-01-04T11:28:23;99231.53;;;3.05;85.67
63405;BME280;49541;57.840;12.306;2023-01-04T11:33:24;99225.59;;;3.14;86.74
63405;BME280;49541;57.840;12.306;2023-01-04T11:38:25;99201.88;;;3.03;86.91
63405;BME280;49541;57.840;12.306;2023-01-04T11:43:29;99206.56;;;2.99;87.12
63405;BME280;49541;57.840;12.306;2023-01-04T11:48:40;99197.00;;;3.10;86.83
63405;BME280;49541;57.840;12.306;2023-01-04T11:53:40;99193.28;;;3.01;86.76
63405;BME280;49541;57.840;12.306;2023-01-04T11:58:42;99182.78;;;3.12;86.85
63405;BME280;49541;57.840;12.306;2023-01-04T12:03:42;99159.22;;;3.11;86.58
63405;BME280;49541;57.840;12.306;2023-01-04T12:08:42;99137.00;;;3.15;86.74
63405;BME280;49541;57.840;12.306;2023-01-04T12:13:42;99105.03;;;3.31;85.38
63405;BME280;49541;57.840;12.306;2023-01-04T12:18:43;99075.63;;;3.69;85.01
63405;BME280;49541;57.840;12.306;2023-01-04T12:23:44;99060.09;;;3.66;84.96
63405;BME280;49541;57.840;12.306;2023-01-04T12:28:49;99086.66;;;3.63;83.63
63405;BME280;49541;57.840;12.306;2023-01-04T12:43:59;99041.09;;;3.62;85.09
63405;BME280;49541;57.840;12.306;2023-01-04T12:49:06;99011.16;;;3.31;85.28
63405;BME280;49541;57.840;12.306;2023-01-04T12:54:24;99009.56;;;3.40;85.57
63405;BME280;49541;57.840;12.306;2023-01-04T12:59:32;99005.50;;;3.47;85.92
63405;BME280;49541;57.840;12.306;2023-01-04T13:04:40;98985.22;;;3.80;85.04
63405;BME280;49541;57.840;12.306;2023-01-04T13:09:41;98994.38;;;3.43;86.50
63405;BME280;49541;57.840;12.306;2023-01-04T13:14:43;98974.50;;;3.72;85.78
63405;BME280;49541;57.840;12.306;2023-01-04T13:19:46;98951.53;;;3.74;85.27
63405;BME280;49541;57.840;12.306;2023-01-04T13:24:47;98945.81;;;3.68;85.63
63405;BME280;49541;57.840;12.306;2023-01-04T13:29:48;98931.44;;;3.73;84.98
63405;BME280;49541;57.840;12.306;2023-01-04T13:34:50;98931.34;;;3.84;86.10
63405;BME280;49541;57.840;12.306;2023-01-04T13:39:51;98924.66;;;3.49;86.12
63405;BME280;49541;57.840;12.306;2023-01-04T13:50:05;98913.44;;;3.78;86.74
63405;BME280;49541;57.840;12.306;2023-01-04T13:55:17;98896.94;;;3.76;86.21
63405;BME280;49541;57.840;12.306;2023-01-04T14:00:18;98886.59;;;3.84;85.85
63405;BME280;49541;57.840;12.306;2023-01-04T14:05:19;98875.03;;;4.06;85.85
63405;BME280;49541;57.840;12.306;2023-01-04T14:10:19;98875.53;;;4.21;84.71
63405;BME280;49541;57.840;12.306;2023-01-04T14:15:20;98874.41;;;4.14;84.75
63405;BME280;49541;57.840;12.306;2023-01-04T14:30:35;98849.25;;;4.00;84.88
63405;BME280;49541;57.840;12.306;2023-01-04T14:35:35;98841.91;;;4.03;84.90
63405;BME280;49541;57.840;12.306;2023-01-04T14:40:35;98849.47;;;3.87;85.32
63405;BME280;49541;57.840;12.306;2023-01-04T14:45:37;98840.56;;;4.19;85.50
63405;BME280;49541;57.840;12.306;2023-01-04T14:50:37;98815.91;;;4.29;84.42
63405;BME280;49541;57.840;12.306;2023-01-04T14:55:37;98824.75;;;4.19;83.94
63405;BME280;49541;57.840;12.306;2023-01-04T15:00:37;98821.88;;;4.22;83.97
63405;BME280;49541;57.840;12.306;2023-01-04T15:05:37;98814.41;;;4.27;84.44
63405;BME280;49541;57.840;12.306;2023-01-04T15:10:38;98799.13;;;4.21;84.17
63405;BME280;49541;57.840;12.306;2023-01-04T15:15:38;98786.25;;;4.27;84.04
63405;BME280;49541;57.840;12.306;2023-01-04T15:20:39;98786.53;;;4.44;83.66
63405;BME280;49541;57.840;12.306;2023-01-04T15:25:39;98780.59;;;4.42;83.94
63405;BME280;49541;57.840;12.306;2023-01-04T15:30:40;98771.97;;;4.59;82.87
63405;BME280;49541;57.840;12.306;2023-01-04T15:35:41;98761.72;;;4.66;82.73
63405;BME280;49541;57.840;12.306;2023-01-04T15:40:41;98764.38;;;4.56;82.72
63405;BME280;49541;57.840;12.306;2023-01-04T15:45:41;98756.16;;;4.79;82.10
63405;BME280;49541;57.840;12.306;2023-01-04T15:50:41;98745.63;;;4.69;82.30
63405;BME280;49541;57.840;12.306;2023-01-04T15:55:42;98735.50;;;4.55;82.65
63405;BME280;49541;57.840;12.306;2023-01-04T16:00:42;98725.91;;;4.73;82.32
63405;BME280;49541;57.840;12.306;2023-01-04T16:05:42;98722.16;;;4.66;82.35
63405;BME280;49541;57.840;12.306;2023-01-04T16:10:42;98710.41;;;4.50;82.85
63405;BME280;49541;57.840;12.306;2023-01-04T16:15:42;98705.25;;;4.29;83.91
63405;BME280;49541;57.840;12.306;2023-01-04T16:20:42;98697.91;;;4.23;83.74
63405;BME280;49541;57.840;12.306;2023-01-04T16:25:43;98701.78;;;4.48;83.45
63405;BME280;49541;57.840;12.306;2023-01-04T16:30:43;98684.63;;;4.35;83.47
63405;BME280;49541;57.840;12.306;2023-01-04T16:35:43;98679.34;;;4.25;83.73
63405;BME280;49541;57.840;12.306;2023-01-04T16:40:43;98666.72;;;4.19;84.98
63405;BME280;49541;57.840;12.306;2023-01-04T16:45:43;98673.53;;;4.12;84.58
63405;BME280;49541;57.840;12.306;2023-01-04T16:50:44;98663.41;;;4.17;84.76
63405;BME280;49541;57.840;12.306;2023-01-04T16:55:44;98657.00;;;4.19;84.77
63405;BME280;49541;57.840;12.306;2023-01-04T17:00:44;98676.56;;;4.17;84.72
63405;BME280;49541;57.840;12.306;2023-01-04T17:05:45;98684.03;;;4.02;85.46
63405;BME280;49541;57.840;12.306;2023-01-04T17:10:45;98681.28;;;3.94;86.28
63405;BME280;49541;57.840;12.306;2023-01-04T17:15:45;98672.09;;;3.68;86.60
63405;BME280;49541;57.840;12.306;2023-01-04T17:20:50;98658.25;;;3.96;85.69
63405;BME280;49541;57.840;12.306;2023-01-04T17:25:51;98657.16;;;3.88;85.82
63405;BME280;49541;57.840;12.306;2023-01-04T17:30:51;98643.53;;;3.74;86.00
63405;BME280;49541;57.840;12.306;2023-01-04T17:35:52;98638.97;;;3.76;85.93
63405;BME280;49541;57.840;12.306;2023-01-04T17:40:52;98636.63;;;4.02;85.65
63405;BME280;49541;57.840;12.306;2023-01-04T17:45:52;98628.03;;;3.71;85.69
63405;BME280;49541;57.840;12.306;2023-01-04T17:50:52;98617.22;;;3.64;86.73
63405;BME280;49541;57.840;12.306;2023-01-04T17:55:52;98623.03;;;3.67;87.53
63405;BME280;49541;57.840;12.306;2023-01-04T18:00:53;98619.19;;;3.81;86.56
63405;BME280;49541;57.840;12.306;2023-01-04T18:05:53;98612.81;;;3.84;86.50
63405;BME280;49541;57.840;12.306;2023-01-04T18:10:54;98605.56;;;3.57;86.97
63405;BME280;49541;57.840;12.306;2023-01-04T18:15:58;98595.03;;;3.47;88.23
63405;BME280;49541;57.840;12.306;2023-01-04T18:26:11;98591.72;;;3.45;88.10
63405;BME280;49541;57.840;12.306;2023-01-04T18:31:13;98579.28;;;3.66;86.86
63405;BME280;49541;57.840;12.306;2023-01-04T18:36:13;98566.94;;;3.57;87.66
63405;BME280;49541;57.840;12.306;2023-01-04T18:41:13;98566.38;;;3.63;87.96
63405;BME280;49541;57.840;12.306;2023-01-04T18:46:14;98559.34;;;3.64;87.72
63405;BME280;49541;57.840;12.306;2023-01-04T18:51:14;98554.75;;;3.56;87.82
63405;BME280;49541;57.840;12.306;2023-01-04T18:56:14;98541.19;;;3.90;86.82
63405;BME280;49541;57.840;12.306;2023-01-04T19:01:18;98545.75;;;3.68;87.05
63405;BME280;49541;57.840;12.306;2023-01-04T19:06:20;98537.72;;;3.80;86.99
63405;BME280;49541;57.840;12.306;2023-01-04T19:11:21;98538.00;;;3.67;87.07
63405;BME280;49541;57.840;12.306;2023-01-04T19:16:21;98533.28;;;3.51;87.46
63405;BME280;49541;57.840;12.306;2023-01-04T19:21:22;98527.88;;;3.53;87.84
63405;BME280;49541;57.840;12.306;2023-01-04T19:26:23;98529.13;;;3.48;88.19
63405;BME280;49541;57.840;12.306;2023-01-04T19:31:23;98522.47;;;3.35;88.98
63405;BME280;49541;57.840;12.306;2023-01-04T19:36:24;98508.63;;;3.42;88.81
63405;BME280;49541;57.840;12.306;2023-01-04T19:41:24;98515.00;;;3.49;88.04
63405;BME280;49541;57.840;12.306;2023-01-04T19:46:26;98518.06;;;3.64;87.68
63405;BME280;49541;57.840;12.306;2023-01-04T19:51:26;98512.06;;;3.53;87.96
63405;BME280;49541;57.840;12.306;2023-01-04T19:56:26;98508.75;;;3.51;88.73
63405;BME280;49541;57.840;12.306;2023-01-04T20:01:27;98508.06;;;3.39;88.96
63405;BME280;49541;57.840;12.306;2023-01-04T20:06:27;98498.66;;;3.56;89.12
63405;BME280;49541;57.840;12.306;2023-01-04T20:11:27;98502.81;;;3.58;89.15
63405;BME280;49541;57.840;12.306;2023-01-04T20:16:28;98507.38;;;3.56;88.96
63405;BME280;49541;57.840;12.306;2023-01-04T20:21:28;98501.16;;;3.38;89.80
63405;BME280;49541;57.840;12.306;2023-01-04T20:26:29;98495.34;;;3.34;88.86
63405;BME280;49541;57.840;12.306;2023-01-04T20:31:29;98501.72;;;3.51;88.84
63405;BME280;49541;57.840;12.306;2023-01-04T20:36:30;98500.06;;;3.40;89.54
63405;BME280;49541;57.840;12.306;2023-01-04T20:41:30;98500.44;;;3.65;89.25
63405;BME280;49541;57.840;12.306;2023-01-04T20:46:33;98504.19;;;3.62;88.82
63405;BME280;49541;57.840;12.306;2023-01-04T20:51:33;98505.56;;;3.37;88.93
63405;BME280;49541;57.840;12.306;2023-01-04T20:56:33;98505.31;;;3.50;88.76
63405;BME280;49541;57.840;12.306;2023-01-04T21:01:36;98502.00;;;3.38;89.06
63405;BME280;49541;57.840;12.306;2023-01-04T21:06:36;98497.81;;;3.16;90.29
63405;BME280;49541;57.840;12.306;2023-01-04T21:11:37;98491.88;;;3.63;89.26
63405;BME280;49541;57.840;12.306;2023-01-04T21:16:37;98493.28;;;3.57;88.98
63405;BME280;49541;57.840;12.306;2023-01-04T21:21:40;98481.47;;;3.81;87.92
63405;BME280;49541;57.840;12.306;2023-01-04T21:26:40;98477.06;;;3.33;88.73
63405;BME280;49541;57.840;12.306;2023-01-04T21:31:40;98477.34;;;3.39;88.88
63405;BME280;49541;57.840;12.306;2023-01-04T21:36:41;98478.16;;;3.30;89.82
63405;BME280;49541;57.840;12.306;2023-01-04T21:41:41;98471.25;;;3.19;90.34
63405;BME280;49541;57.840;12.306;2023-01-04T21:46:41;98478.72;;;3.43;89.70
63405;BME280;49541;57.840;12.306;2023-01-04T21:51:41;98471.09;;;3.31;89.69
63405;BME280;49541;57.840;12.306;2023-01-04T21:56:41;98465.44;;;3.45;89.09
63405;BME280;49541;57.840;12.306;2023-01-04T22:01:44;98463.03;;;3.61;89.24
63405;BME280;49541;57.840;12.306;2023-01-04T22:06:44;98462.91;;;3.63;88.52
63405;BME280;49541;57.840;12.306;2023-01-04T22:11:44;98468.75;;;3.66;88.30
63405;BME280;49541;57.840;12.306;2023-01-04T22:16:44;98466.28;;;3.36;89.10
63405;BME280;49541;57.840;12.306;2023-01-04T22:21:45;98470.28;;;3.49;89.50
63405;BME280;49541;57.840;12.306;2023-01-04T22:26:45;98465.41;;;3.35;89.64
63405;BME280;49541;57.840;12.306;2023-01-04T22:31:47;98477.19;;;3.70;88.84
63405;BME280;49541;57.840;12.306;2023-01-04T22:36:47;98474.28;;;3.63;88.33
63405;BME280;49541;57.840;12.306;2023-01-04T22:41:47;98473.72;;;3.50;89.01
63405;BME280;49541;57.840;12.306;2023-01-04T22:46:48;98467.66;;;3.59;88.71
63405;BME280;49541;57.840;12.306;2023-01-04T22:51:48;98471.09;;;3.50;89.23
63405;BME280;49541;57.840;12.306;2023-01-04T22:56:48;98473.72;;;3.50;89.31
63405;BME280;49541;57.840;12.306;2023-01-04T23:01:48;98473.59;;;3.42;89.46
63405;BME280;49541;57.840;12.306;2023-01-04T23:06:49;98479.81;;;3.60;89.29
63405;BME280;49541;57.840;12.306;2023-01-04T23:11:49;98479.44;;;3.55;89.37
63405;BME280;49541;57.840;12.306;2023-01-04T23:16:49;98469.59;;;3.47;89.33
63405;BME280;49541;57.840;12.306;2023-01-04T23:21:49;98477.34;;;3.39;90.40
63405;BME280;49541;57.840;12.306;2023-01-04T23:26:49;98471.53;;;3.55;89.35
63405;BME280;49541;57.840;12.306;2023-01-04T23:31:50;98480.94;;;3.48;89.15
63405;BME280;49541;57.840;12.306;2023-01-04T23:36:50;98480.38;;;3.54;88.88
63405;BME280;49541;57.840;12.306;2023-01-04T23:41:50;98473.19;;;3.56;88.83
63405;BME280;49541;57.840;12.306;2023-01-04T23:46:52;98482.06;;;3.36;89.90
63405;BME280;49541;57.840;12.306;2023-01-04T23:51:52;98493.53;;;3.25;91.29
63405;BME280;49541;57.840;12.306;2023-01-04T23:56:53;98486.19;;;3.28;90.75
